Time;durP1;ratioP1;P1;durP2;ratioP2;P2;SDS_P1;SDS_P2;PMS_P1;PMS_P2;Temp;Humidity;BMP_temperature;BMP_pressure;BME280_temperature;BME280_humidity;BME280_pressure;Samples;Min_cycle;Max_cycle;Signal;HPM_P1;HPM_P2
2021/07/01 00:05:28;;;;;;;;;;;;;;;;;;;;;
2021/07/01 00:30:11;;;;;;;;;;;;;;;;;;;;;
2021/07/01 00:33:03;;;;;;;20.25;12.32;;;15.50;99.90;;;;;;4870988;29;20103;-91
2021/07/01 00:36:15;;;;;;;20.27;12.75;;;15.40;99.90;;;;;;4960606;29;20043;-92
2021/07/01 00:39:24;;;;;;;;;;;15.50;99.90;;;;;;4963541;28;20019;-93
2021/07/01 00:45:34;;;;;;;;;;;;;;;;;;;;;
2021/07/01 00:48:00;;;;;;;20.60;12.60;;;15.40;99.90;;;;;;4983664;23;20075;-89
2021/07/01 00:50:27;;;;;;;21.23;12.80;;;15.40;99.90;;;;;;5050927;28;20025;-89
2021/07/01 00:52:52;;;;;;;18.70;11.68;;;15.40;99.90;;;;;;5048221;28;20021;-90
2021/07/01 00:55:18;;;;;;;23.48;12.73;;;15.40;99.90;;;;;;5056915;28;20131;-90
2021/07/01 00:57:44;;;;;;;20.10;12.93;;;15.40;99.90;;;;;;5039476;28;20033;-91
2021/07/01 01:00:33;;;;;;;20.98;13.75;;;15.40;99.90;;;;;;5058517;28;20097;-90
2021/07/01 01:02:59;;;;;;;21.30;13.23;;;15.40;99.90;;;;;;5059265;28;20036;-90
2021/07/01 01:05:25;;;;;;;26.50;14.13;;;15.40;99.90;;;;;;5042545;28;20100;-90
2021/07/01 01:07:51;;;;;;;19.50;13.10;;;15.30;99.90;;;;;;5042774;28;20116;-90
2021/07/01 01:10:37;;;;;;;18.50;12.73;;;15.30;99.90;;;;;;5042708;28;20022;-90
2021/07/01 01:13:04;;;;;;;22.15;13.07;;;15.30;99.90;;;;;;5021195;28;20075;-89
2021/07/01 01:15:29;;;;;;;22.15;12.68;;;15.30;99.90;;;;;;5050145;28;20033;-90
2021/07/01 01:17:55;;;;;;;18.15;12.40;;;15.30;99.90;;;;;;5039954;28;20025;-90
2021/07/01 01:20:21;;;;;;;20.95;12.65;;;15.30;99.90;;;;;;5043088;28;20108;-90
2021/07/01 01:22:46;;;;;;;25.88;12.68;;;15.20;99.90;;;;;;5040785;28;20013;-90
2021/07/01 01:25:13;;;;;;;25.05;12.60;;;15.30;99.90;;;;;;5015740;28;20544;-89
2021/07/01 01:27:39;;;;;;;21.45;12.52;;;15.20;99.90;;;;;;5056257;28;20025;-89
2021/07/01 01:30:06;;;;;;;18.50;11.32;;;15.20;99.90;;;;;;5055426;28;20075;-90
2021/07/01 01:32:32;;;;;;;19.30;11.75;;;15.20;99.90;;;;;;5042106;28;20028;-90
2021/07/01 01:34:57;;;;;;;20.50;11.75;;;15.20;99.90;;;;;;5058750;28;20020;-90
2021/07/01 01:37:23;;;;;;;21.35;11.32;;;15.20;99.90;;;;;;5058727;28;20032;-90
2021/07/01 01:39:50;;;;;;;19.40;10.35;;;15.20;99.90;;;;;;5041958;28;20082;-89
2021/07/01 01:42:16;;;;;;;21.55;10.48;;;15.20;99.90;;;;;;5041965;28;20028;-89
2021/07/01 01:44:42;;;;;;;20.92;10.80;;;15.10;99.90;;;;;;5058449;28;20024;-89
2021/07/01 01:47:18;;;;;;;17.67;9.85;;;15.10;99.90;;;;;;5042463;28;20448;-90
2021/07/01 01:49:46;;;;;;;20.58;9.82;;;15.10;99.90;;;;;;5056847;28;20095;-90
2021/07/01 01:52:11;;;;;;;18.10;9.45;;;15.10;99.90;;;;;;5022323;28;20053;-91
2021/07/01 01:54:37;;;;;;;17.42;9.95;;;15.10;99.90;;;;;;5038346;28;20063;-89
2021/07/01 01:57:03;;;;;;;14.10;8.50;;;15.10;99.90;;;;;;5021912;28;20071;-90
2021/07/01 01:59:29;;;;;;;16.88;9.35;;;15.10;99.90;;;;;;5038149;28;20086;-90
2021/07/01 02:01:54;;;;;;;14.85;8.77;;;15.10;99.90;;;;;;5021893;28;20040;-90
2021/07/01 02:04:20;;;;;;;17.90;8.98;;;15.10;99.90;;;;;;5038202;28;20059;-90
2021/07/01 02:06:46;;;;;;;14.52;8.23;;;15.10;99.90;;;;;;5037995;28;20036;-90
2021/07/01 02:09:11;;;;;;;13.75;7.85;;;15.10;99.90;;;;;;5005234;28;20029;-89
2021/07/01 02:11:37;;;;;;;16.70;8.40;;;15.10;99.90;;;;;;5005189;28;20018;-90
2021/07/01 02:14:03;;;;;;;13.27;7.65;;;15.10;99.90;;;;;;5022526;28;20355;-89
2021/07/01 02:16:29;;;;;;;14.07;6.80;;;15.10;99.90;;;;;;5021542;28;20497;-89
2021/07/01 02:18:55;;;;;;;12.70;7.32;;;15.10;99.90;;;;;;5021545;28;20156;-90
2021/07/01 02:21:21;;;;;;;12.30;6.20;;;15.10;99.90;;;;;;5021313;28;20482;-89
2021/07/01 02:23:48;;;;;;;9.05;5.93;;;15.00;99.90;;;;;;5037864;28;20048;-90
2021/07/01 02:26:14;;;;;;;12.30;6.50;;;15.10;99.90;;;;;;5037066;28;20028;-89
2021/07/01 02:28:40;;;;;;;13.85;6.93;;;15.00;99.90;;;;;;5021355;28;20100;-90
2021/07/01 02:31:05;;;;;;;11.20;6.72;;;15.00;99.90;;;;;;5021683;28;20059;-90
2021/07/01 02:33:31;;;;;;;12.93;7.55;;;15.00;99.90;;;;;;5055686;28;20027;-89
2021/07/01 02:35:57;;;;;;;15.05;7.50;;;15.00;99.90;;;;;;5026450;28;20025;-90
2021/07/01 02:38:22;;;;;;;14.35;8.15;;;15.00;99.90;;;;;;5037532;28;20561;-89
2021/07/01 02:40:54;;;;;;;15.38;7.60;;;15.00;99.90;;;;;;5040048;28;20096;-89
2021/07/01 02:43:20;;;;;;;14.73;7.72;;;15.00;99.90;;;;;;5056958;28;20012;-90
2021/07/01 02:45:45;;;;;;;15.35;8.00;;;15.00;99.90;;;;;;5022530;28;20434;-89
2021/07/01 02:48:11;;;;;;;11.80;7.70;;;15.00;99.90;;;;;;5039201;28;20510;-90
2021/07/01 02:50:37;;;;;;;14.60;7.93;;;15.00;99.90;;;;;;5022637;28;20119;-89
2021/07/01 02:53:02;;;;;;;12.02;7.63;;;15.00;99.90;;;;;;5048958;28;20378;-89
2021/07/01 02:55:28;;;;;;;13.93;7.70;;;15.00;99.90;;;;;;5041474;28;20116;-89
2021/07/01 02:57:54;;;;;;;14.82;7.40;;;15.00;99.90;;;;;;5036197;28;20037;-89
2021/07/01 03:00:19;;;;;;;15.70;7.85;;;15.00;99.90;;;;;;5027826;28;20039;-88
2021/07/01 03:02:45;;;;;;;13.55;7.93;;;15.00;99.90;;;;;;5037078;28;20025;-89
2021/07/01 03:05:11;;;;;;;13.38;7.85;;;15.00;99.90;;;;;;5046098;28;20029;-88
2021/07/01 03:07:36;;;;;;;12.35;7.20;;;15.00;99.90;;;;;;5032853;28;20037;-90
2021/07/01 03:10:04;;;;;;;12.98;7.50;;;14.90;99.90;;;;;;5037149;28;20021;-88
2021/07/01 03:12:30;;;;;;;15.32;7.63;;;14.90;99.90;;;;;;5066109;28;20466;-89
2021/07/01 03:14:55;;;;;;;13.07;7.68;;;14.90;99.90;;;;;;4945782;23;20421;-86
2021/07/01 03:17:21;;;;;;;15.40;7.70;;;14.90;99.90;;;;;;5009991;28;20569;-86
2021/07/01 03:19:46;;;;;;;15.85;7.97;;;14.90;99.90;;;;;;5017371;28;20106;-86
2021/07/01 03:22:12;;;;;;;15.15;8.73;;;14.90;99.90;;;;;;5018289;28;20032;-86
2021/07/01 03:24:38;;;;;;;15.00;7.70;;;14.90;99.90;;;;;;5050638;28;20446;-86
2021/07/01 03:27:04;;;;;;;14.85;7.65;;;14.90;99.90;;;;;;5034528;28;20032;-87
2021/07/01 03:29:31;;;;;;;14.85;7.90;;;14.90;99.90;;;;;;5017947;28;20025;-87
2021/07/01 03:31:57;;;;;;;15.80;7.63;;;14.80;99.90;;;;;;5018039;28;20033;-86
2021/07/01 03:34:22;;;;;;;14.95;8.05;;;14.90;99.90;;;;;;5034690;28;20021;-86
2021/07/01 03:36:49;;;;;;;15.57;8.13;;;14.80;99.90;;;;;;5017380;28;20528;-86
2021/07/01 03:39:14;;;;;;;17.98;7.97;;;14.80;99.90;;;;;;5051459;28;20082;-86
2021/07/01 03:41:40;;;;;;;18.25;8.35;;;14.80;99.90;;;;;;5017603;28;20029;-86
2021/07/01 03:44:08;;;;;;;15.45;7.88;;;14.70;99.90;;;;;;5017648;28;20111;-87
2021/07/01 03:46:34;;;;;;;14.75;7.88;;;14.70;99.90;;;;;;5017507;28;20068;-86
2021/07/01 03:48:59;;;;;;;15.35;8.07;;;14.70;99.90;;;;;;5034146;28;20071;-87
2021/07/01 03:51:25;;;;;;;15.05;7.28;;;14.70;99.90;;;;;;5039447;28;20025;-87
2021/07/01 03:53:51;;;;;;;13.98;7.38;;;14.70;99.90;;;;;;5027632;28;20021;-87
2021/07/01 03:56:16;;;;;;;14.00;7.40;;;14.70;99.90;;;;;;5014470;28;20390;-86
2021/07/01 03:58:42;;;;;;;14.65;7.45;;;14.70;99.90;;;;;;5026362;28;20033;-86
2021/07/01 04:01:08;;;;;;;17.90;8.80;;;14.70;99.90;;;;;;5030929;28;20033;-87
2021/07/01 04:03:34;;;;;;;16.33;8.35;;;14.70;99.90;;;;;;5014700;28;20032;-87
2021/07/01 04:05:59;;;;;;;17.88;8.65;;;14.60;99.90;;;;;;4997673;28;20033;-86
2021/07/01 04:08:25;;;;;;;17.63;9.00;;;14.70;99.90;;;;;;5033667;28;20086;-86
2021/07/01 04:10:51;;;;;;;19.70;10.20;;;14.70;99.90;;;;;;5036306;28;20452;-86
2021/07/01 04:13:17;;;;;;;18.85;9.57;;;14.70;99.90;;;;;;5034057;28;20065;-86
2021/07/01 04:15:43;;;;;;;21.48;10.77;;;14.60;99.90;;;;;;5052023;28;20025;-87
2021/07/01 04:18:10;;;;;;;23.27;11.07;;;14.60;99.90;;;;;;5034046;28;20166;-86
2021/07/01 04:20:36;;;;;;;23.30;11.55;;;14.60;99.90;;;;;;5051986;28;20075;-87
2021/07/01 04:23:03;;;;;;;19.15;9.98;;;14.60;99.90;;;;;;5049931;28;20103;-87
2021/07/01 04:25:29;;;;;;;22.42;10.63;;;14.50;99.90;;;;;;5017650;28;20033;-88
2021/07/01 04:27:54;;;;;;;18.02;9.43;;;14.50;99.90;;;;;;5031147;28;20021;-87
2021/07/01 04:30:20;;;;;;;15.90;9.50;;;14.50;99.90;;;;;;5043959;28;20037;-87
2021/07/01 04:32:46;;;;;;;16.83;9.73;;;14.50;99.90;;;;;;5032659;28;20033;-87
2021/07/01 04:35:11;;;;;;;17.25;10.02;;;14.50;99.90;;;;;;5029939;28;20068;-87
2021/07/01 04:37:37;;;;;;;16.83;9.52;;;14.50;99.90;;;;;;5033851;28;20056;-87
2021/07/01 04:40:08;;;;;;;16.92;9.55;;;14.50;99.90;;;;;;5013654;28;20390;-87
2021/07/01 04:42:35;;;;;;;14.35;9.18;;;14.50;99.90;;;;;;5040436;28;20366;-88
2021/07/01 04:45:02;;;;;;;13.77;9.05;;;14.50;99.90;;;;;;5031789;28;20021;-87
2021/07/01 04:47:27;;;;;;;16.77;9.80;;;14.50;99.90;;;;;;5034180;28;20021;-86
2021/07/01 04:49:53;;;;;;;20.50;10.45;;;14.50;99.90;;;;;;5019246;28;20027;-87
2021/07/01 04:52:18;;;;;;;18.38;9.77;;;14.50;99.90;;;;;;5037321;28;20055;-86
2021/07/01 04:54:44;;;;;;;17.38;9.77;;;14.50;99.90;;;;;;5055148;28;20132;-87
2021/07/01 04:57:10;;;;;;;16.73;10.35;;;14.50;99.90;;;;;;5020707;28;20025;-87
2021/07/01 04:59:35;;;;;;;16.92;9.82;;;14.40;99.90;;;;;;5033845;28;20486;-86
2021/07/01 05:02:01;;;;;;;20.50;10.68;;;14.40;99.90;;;;;;5006929;28;20033;-86
2021/07/01 05:04:27;;;;;;;23.48;10.77;;;14.40;99.90;;;;;;5033396;28;20035;-87
2021/07/01 05:06:52;;;;;;;19.70;10.20;;;14.40;99.90;;;;;;5010319;28;20048;-87
2021/07/01 05:09:18;;;;;;;21.05;10.52;;;14.40;99.90;;;;;;5036827;28;20033;-86
2021/07/01 05:11:44;;;;;;;19.00;9.32;;;14.30;99.90;;;;;;5033321;28;20033;-87
2021/07/01 05:14:10;;;;;;;18.83;10.57;;;14.30;99.90;;;;;;5035479;28;20045;-86
2021/07/01 05:16:38;;;;;;;21.25;10.40;;;14.30;99.90;;;;;;5043743;28;20508;-87
2021/07/01 05:19:04;;;;;;;18.38;10.02;;;14.30;99.90;;;;;;5036482;28;20025;-87
2021/07/01 05:21:30;;;;;;;22.27;10.27;;;14.30;99.90;;;;;;5036082;28;20489;-87
2021/07/01 05:23:56;;;;;;;18.02;11.32;;;14.30;99.90;;;;;;5033594;28;20374;-87
2021/07/01 05:26:32;;;;;;;21.55;10.60;;;14.30;99.90;;;;;;5042406;28;20035;-84
2021/07/01 05:28:57;;;;;;;24.02;11.00;;;14.30;99.90;;;;;;5045382;28;20407;-86
2021/07/01 05:31:23;;;;;;;18.42;10.23;;;14.30;99.90;;;;;;5033953;28;20425;-86
2021/07/01 05:33:49;;;;;;;21.23;10.02;;;14.30;99.90;;;;;;5020751;28;20028;-87
2021/07/01 05:36:14;;;;;;;17.58;9.70;;;14.20;99.90;;;;;;5048277;28;20437;-87
2021/07/01 05:38:40;;;;;;;18.58;10.02;;;14.30;99.90;;;;;;5052927;28;20020;-87
2021/07/01 05:41:06;;;;;;;14.98;9.80;;;14.30;99.90;;;;;;5033564;28;20479;-86
2021/07/01 05:43:31;;;;;;;20.88;10.10;;;14.30;99.90;;;;;;5008035;28;20033;-86
2021/07/01 05:45:57;;;;;;;18.55;10.00;;;14.30;99.90;;;;;;5042972;28;20049;-85
2021/07/01 05:48:25;;;;;;;17.77;9.45;;;14.30;99.90;;;;;;5047294;28;20029;-87
2021/07/01 05:50:55;;;;;;;18.45;9.48;;;14.30;99.90;;;;;;5021367;28;20022;-86
2021/07/01 05:53:51;;;;;;;15.70;9.50;;;14.30;99.90;;;;;;5035485;28;20025;-86
2021/07/01 05:56:07;;;;;;;15.57;9.32;;;14.30;99.90;;;;;;5048729;28;20079;-86
2021/07/01 05:58:32;;;;;;;23.17;10.65;;;14.40;99.90;;;;;;5037773;28;20493;-87
2021/07/01 06:00:58;;;;;;;19.75;11.73;;;14.40;99.90;;;;;;5034163;28;20467;-86
2021/07/01 06:03:23;;;;;;;18.70;10.65;;;14.30;99.90;;;;;;5031449;28;20034;-87
2021/07/01 06:05:57;;;;;;;20.52;10.52;;;14.30;99.90;;;;;;5033140;28;20021;-92
2021/07/01 06:08:24;;;;;;;22.17;10.77;;;14.40;99.90;;;;;;5012755;28;20025;-92
2021/07/01 06:10:52;;;;;;;18.40;10.55;;;14.30;99.90;;;;;;5053277;28;20047;-93
2021/07/01 06:13:23;;;;;;;19.67;9.93;;;14.30;99.90;;;;;;5065202;28;20045;-93
2021/07/01 06:15:51;;;;;;;20.90;9.52;;;14.40;99.90;;;;;;5041529;28;20060;-92
2021/07/01 06:18:23;;;;;;;14.35;9.35;;;14.40;99.90;;;;;;5065038;28;20125;-92
2021/07/01 06:20:50;;;;;;;16.45;10.55;;;14.40;99.90;;;;;;5072357;28;20084;-93
2021/07/01 06:23:17;;;;;;;18.42;9.98;;;14.40;99.90;;;;;;5058152;28;20039;-93
2021/07/01 06:25:44;;;;;;;19.73;10.05;;;14.40;99.90;;;;;;5057109;28;20025;-94
2021/07/01 06:28:13;;;;;;;20.48;11.40;;;14.40;99.90;;;;;;5039808;28;20348;-94
2021/07/01 06:30:41;;;;;;;23.73;11.05;;;14.40;99.90;;;;;;5057046;28;20029;-94
2021/07/01 06:33:06;;;;;;;20.48;11.32;;;14.40;99.90;;;;;;5054889;28;20052;-94
2021/07/01 06:35:32;;;;;;;23.23;11.00;;;14.40;99.90;;;;;;5054360;28;20032;-93
2021/07/01 06:38:01;;;;;;;20.25;11.40;;;14.40;99.90;;;;;;5041570;28;20056;-94
2021/07/01 06:40:31;;;;;;;22.67;11.25;;;14.40;99.90;;;;;;5067524;28;20048;-94
2021/07/01 06:42:58;;;;;;;19.20;11.23;;;14.40;99.90;;;;;;5074541;28;20473;-93
2021/07/01 06:45:25;;;;;;;18.98;10.57;;;14.40;99.90;;;;;;5069328;28;20083;-92
2021/07/01 06:47:54;;;;;;;18.58;10.23;;;14.40;99.90;;;;;;5056946;28;20016;-91
2021/07/01 06:50:25;;;;;;;22.67;10.60;;;14.40;99.90;;;;;;5055154;28;20008;-92
2021/07/01 06:52:52;;;;;;;25.00;11.45;;;14.50;99.90;;;;;;5054877;28;20021;-91
2021/07/01 06:55:18;;;;;;;21.67;11.05;;;14.50;99.90;;;;;;5043676;28;20040;-93
2021/07/01 06:57:45;;;;;;;22.05;11.38;;;14.50;99.90;;;;;;5049685;28;20017;-92
2021/07/01 07:00:13;;;;;;;22.15;11.50;;;14.50;99.90;;;;;;5054757;28;20057;-91
2021/07/01 07:02:40;;;;;;;19.25;11.60;;;14.50;99.90;;;;;;5035640;28;20116;-90
2021/07/01 07:05:08;;;;;;;20.38;10.18;;;14.50;99.90;;;;;;5074752;28;20036;-90
2021/07/01 07:07:35;;;;;;;34.92;14.35;;;14.50;99.90;;;;;;5075940;28;20044;-90
2021/07/01 07:10:04;;;;;;;28.90;13.00;;;14.60;99.90;;;;;;5072113;28;20120;-90
2021/07/01 07:12:31;;;;;;;21.85;12.38;;;14.60;99.90;;;;;;5038576;28;20029;-90
2021/07/01 07:14:57;;;;;;;21.08;11.10;;;14.60;99.90;;;;;;5006580;28;20055;-89
2021/07/01 07:17:29;;;;;;;22.10;11.52;;;14.60;99.90;;;;;;5017670;28;20034;-89
2021/07/01 07:20:00;;;;;;;27.77;11.75;;;14.60;99.90;;;;;;4947939;29;20349;-89
2021/07/01 07:22:29;;;;;;;;;;;14.60;99.90;;;;;;5015549;28;20365;-91
2021/07/01 07:25:04;;;;;;;25.77;11.38;;;14.60;99.90;;;;;;5014309;28;20407;-90
2021/07/01 07:27:30;;;;;;;22.67;11.13;;;14.60;99.90;;;;;;5029394;28;20141;-90
2021/07/01 07:29:57;;;;;;;20.65;11.00;;;14.60;99.90;;;;;;5013584;28;20016;-90
2021/07/01 07:32:26;;;;;;;20.73;11.88;;;14.70;99.90;;;;;;4939587;29;20446;-89
2021/07/01 07:34:52;;;;;;;22.35;11.25;;;14.60;99.90;;;;;;5033488;28;20028;-90
2021/07/01 07:37:19;;;;;;;18.30;11.07;;;14.70;99.90;;;;;;5015235;28;20036;-89
2021/07/01 07:39:46;;;;;;;22.83;11.38;;;14.70;99.90;;;;;;5009572;28;20024;-88
2021/07/01 07:42:12;;;;;;;22.20;11.70;;;14.70;99.90;;;;;;5036063;28;20121;-90
2021/07/01 07:44:43;;;;;;;22.20;11.52;;;14.80;99.90;;;;;;5019246;28;20088;-90
2021/07/01 07:47:10;;;;;;;26.58;12.95;;;14.70;99.90;;;;;;5016453;28;20465;-90
2021/07/01 07:49:36;;;;;;;24.75;12.10;;;14.80;99.90;;;;;;5024090;28;20059;-90
2021/07/01 07:52:06;;;;;;;26.77;11.73;;;14.70;99.90;;;;;;4946204;28;20105;-90
2021/07/01 07:54:37;;;;;;;21.15;11.52;;;14.80;99.90;;;;;;5014516;28;20030;-90
2021/07/01 07:57:03;;;;;;;24.27;11.32;;;14.80;99.90;;;;;;5001782;28;20058;-91
2021/07/01 07:59:31;;;;;;;23.35;11.63;;;14.80;99.90;;;;;;5002557;28;20074;-89
2021/07/01 08:02:00;;;;;;;23.52;11.93;;;14.80;99.90;;;;;;4985351;28;20119;-91
2021/07/01 08:04:27;;;;;;;25.88;11.30;;;14.80;99.90;;;;;;5020089;28;20023;-90
2021/07/01 08:06:54;;;;;;;20.75;11.02;;;14.80;99.90;;;;;;5020410;28;20073;-90
2021/07/01 08:09:28;;;;;;;19.30;10.38;;;14.80;99.90;;;;;;5022773;28;20031;-89
2021/07/01 08:11:55;;;;;;;19.85;10.18;;;14.80;99.90;;;;;;5033470;28;20024;-89
2021/07/01 08:14:23;;;;;;;25.08;11.75;;;14.80;99.90;;;;;;5005776;28;20063;-89
2021/07/01 08:16:50;;;;;;;21.50;11.30;;;14.80;99.90;;;;;;5015310;28;20020;-90
2021/07/01 08:19:15;;;;;;;22.85;11.35;;;14.90;99.90;;;;;;4965998;29;20054;-89
2021/07/01 08:21:41;;;;;;;25.25;11.55;;;14.90;99.90;;;;;;5012489;28;20047;-90
2021/07/01 08:24:11;;;;;;;22.98;11.55;;;14.90;99.90;;;;;;4986573;28;20035;-91
2021/07/01 08:26:37;;;;;;;20.85;10.55;;;14.90;99.90;;;;;;5024348;28;20165;-90
2021/07/01 08:29:21;;;;;;;21.08;11.82;;;14.90;99.90;;;;;;4977898;28;20024;-91
2021/07/01 08:32:12;;;;;;;24.20;11.38;;;15.00;99.90;;;;;;5019832;28;20025;-91
2021/07/01 08:35:12;;;;;;;28.40;11.60;;;15.00;99.90;;;;;;5025554;28;20048;-91
2021/07/01 08:37:43;;;;;;;25.85;11.82;;;15.00;99.90;;;;;;5016026;28;20036;-91
2021/07/01 08:40:31;;;;;;;24.58;11.45;;;15.00;99.90;;;;;;5025992;28;20022;-90
2021/07/01 08:43:10;;;;;;;24.00;11.40;;;15.00;99.90;;;;;;5024058;28;20032;-91
2021/07/01 08:46:19;;;;;;;23.48;12.18;;;15.00;99.90;;;;;;5024636;28;20047;-91
2021/07/01 08:49:01;;;;;;;25.00;12.45;;;15.00;99.90;;;;;;5030950;28;20072;-90
2021/07/01 08:51:33;;;;;;;27.95;11.95;;;15.10;99.90;;;;;;5017894;28;20019;-88
2021/07/01 08:54:34;;;;;;;24.35;12.05;;;15.10;99.90;;;;;;5009123;28;20542;-90
2021/07/01 08:57:04;;;;;;;25.73;12.13;;;15.10;99.90;;;;;;5022542;28;20019;-90
2021/07/01 08:59:43;;;;;;;23.13;11.60;;;15.10;99.90;;;;;;5022450;28;20028;-89
2021/07/01 09:02:12;;;;;;;22.50;11.55;;;15.10;99.90;;;;;;5024985;28;20103;-91
2021/07/01 09:04:54;;;;;;;22.17;11.52;;;15.10;99.90;;;;;;5034169;28;20011;-90
2021/07/01 09:07:23;;;;;;;18.50;10.98;;;15.20;99.90;;;;;;5015684;28;20070;-90
2021/07/01 09:09:57;;;;;;;22.92;11.32;;;15.20;99.90;;;;;;5021945;28;20016;-90
2021/07/01 09:12:25;;;;;;;23.05;11.43;;;15.20;99.90;;;;;;4999213;28;20026;-89
2021/07/01 09:14:57;;;;;;;24.83;12.05;;;15.20;99.90;;;;;;5017260;28;20087;-89
2021/07/01 09:17:26;;;;;;;24.35;11.85;;;15.20;99.90;;;;;;5011652;28;20055;-91
2021/07/01 09:19:57;;;;;;;25.38;12.15;;;15.20;99.90;;;;;;5038664;28;20017;-90
2021/07/01 09:22:25;;;;;;;30.02;12.70;;;15.20;99.90;;;;;;5030957;28;20044;-90
2021/07/01 09:24:52;;;;;;;28.92;13.55;;;15.20;99.90;;;;;;5029416;28;20041;-90
2021/07/01 09:27:18;;;;;;;29.92;13.90;;;15.20;99.90;;;;;;5013814;28;20022;-88
2021/07/01 09:29:46;;;;;;;30.33;13.55;;;15.20;99.90;;;;;;5021367;28;20433;-89
2021/07/01 09:32:13;;;;;;;36.33;13.05;;;15.20;99.90;;;;;;5008051;28;20057;-91
2021/07/01 09:34:44;;;;;;;26.05;12.23;;;15.20;99.90;;;;;;5022594;28;20029;-90
2021/07/01 09:37:10;;;;;;;29.13;13.43;;;15.20;99.90;;;;;;5013028;28;20075;-89
2021/07/01 09:39:37;;;;;;;31.33;13.98;;;15.30;99.90;;;;;;5018257;28;20120;-91
2021/07/01 09:42:05;;;;;;;32.92;14.20;;;15.20;99.90;;;;;;5001283;28;20014;-90
2021/07/01 09:44:32;;;;;;;27.02;13.70;;;15.20;99.90;;;;;;5006699;28;20100;-89
2021/07/01 09:47:00;;;;;;;34.63;13.57;;;15.20;99.90;;;;;;5018764;28;20033;-91
2021/07/01 09:49:32;;;;;;;32.95;12.63;;;15.20;99.90;;;;;;5019266;28;20037;-90
2021/07/01 09:52:02;;;;;;;29.45;12.93;;;15.20;99.90;;;;;;5032774;28;20463;-89
2021/07/01 09:54:31;;;;;;;24.52;12.98;;;15.20;99.90;;;;;;5024452;28;20025;-90
2021/07/01 09:57:00;;;;;;;32.72;14.25;;;15.30;99.90;;;;;;5035083;28;20112;-90
2021/07/01 09:59:33;;;;;;;25.50;12.13;;;15.30;99.90;;;;;;5017927;28;20099;-90
2021/07/01 10:02:19;;;;;;;31.67;12.93;;;15.30;99.90;;;;;;5033753;28;20036;-90
2021/07/01 10:04:45;;;;;;;30.30;13.00;;;15.30;99.90;;;;;;5028417;28;20022;-88
2021/07/01 10:07:16;;;;;;;24.90;13.82;;;15.30;99.90;;;;;;5026333;28;20022;-90
2021/07/01 10:09:43;;;;;;;;;;;15.30;99.90;;;;;;5020767;28;20041;-91
2021/07/01 10:12:32;;;;;;;28.25;12.95;;;15.30;99.90;;;;;;5017859;28;19905;-89
2021/07/01 10:15:01;;;;;;;28.10;13.15;;;15.30;99.90;;;;;;5030553;28;20047;-91
2021/07/01 10:17:28;;;;;;;33.00;14.75;;;15.30;99.90;;;;;;5037444;28;20472;-90
2021/07/01 10:20:07;;;;;;;28.45;13.68;;;15.30;99.90;;;;;;5003583;28;20031;-90
2021/07/01 10:22:38;;;;;;;27.25;13.40;;;15.30;99.90;;;;;;5013247;28;20037;-90
2021/07/01 10:25:04;;;;;;;;;;;15.30;99.90;;;;;;5021018;28;20504;-90
2021/07/01 10:27:32;;;;;;;34.63;13.93;;;15.30;99.90;;;;;;4999546;28;20276;-91
2021/07/01 10:30:00;;;;;;;37.97;16.95;;;15.40;99.90;;;;;;4935984;29;20058;-89
2021/07/01 10:32:56;;;;;;;34.13;16.25;;;15.30;99.90;;;;;;4921724;29;20472;-90
2021/07/01 10:35:29;;;;;;;31.25;15.13;;;15.30;99.90;;;;;;4974940;28;20080;-90
2021/07/01 10:37:56;;;;;;;30.48;14.05;;;15.30;99.90;;;;;;5039674;28;20108;-91
2021/07/01 10:40:21;;;;;;;36.88;14.52;;;15.30;99.90;;;;;;4974859;28;20063;-92
2021/07/01 10:42:52;;;;;;;33.20;14.88;;;15.40;99.90;;;;;;5017741;28;20028;-91
2021/07/01 10:45:18;;;;;;;35.15;15.57;;;15.40;99.90;;;;;;5006495;28;20035;-90
2021/07/01 10:47:43;;;;;;;33.17;14.95;;;15.40;99.90;;;;;;5004657;28;20469;-91
2021/07/01 10:50:30;;;;;;;33.05;15.05;;;15.40;99.90;;;;;;5010345;28;20080;-90
2021/07/01 10:52:56;;;;;;;36.50;15.88;;;15.40;99.90;;;;;;5027174;28;20024;-89
2021/07/01 10:55:22;;;;;;;37.67;17.38;;;15.40;99.90;;;;;;5036914;28;20104;-91
2021/07/01 10:57:56;;;;;;;34.53;16.10;;;15.40;99.90;;;;;;5000962;28;20123;-90
2021/07/01 11:00:39;;;;;;;39.25;15.70;;;15.40;99.90;;;;;;5034737;28;20487;-91
2021/07/01 11:03:05;;;;;;;31.38;15.60;;;15.40;99.90;;;;;;5005323;28;20038;-90
2021/07/01 11:05:37;;;;;;;34.65;16.58;;;15.40;99.90;;;;;;5021859;28;20039;-91
2021/07/01 11:08:03;;;;;;;38.80;17.08;;;15.40;99.90;;;;;;5006303;28;20048;-90
2021/07/01 11:10:34;;;;;;;39.65;16.92;;;15.30;99.90;;;;;;5005480;28;20028;-91
2021/07/01 11:13:05;;;;;;;;;;;15.40;99.90;;;;;;5038088;28;20003;-92
2021/07/01 11:15:31;;;;;;;34.30;15.48;;;15.40;99.90;;;;;;5033385;28;20344;-90
2021/07/01 11:18:08;;;;;;;37.97;16.85;;;15.40;99.90;;;;;;5019249;28;20036;-91
2021/07/01 11:20:34;;;;;;;36.33;15.90;;;15.40;99.90;;;;;;5010040;28;20032;-90
2021/07/01 11:23:02;;;;;;;34.35;17.10;;;15.40;99.90;;;;;;5002637;28;20050;-91
2021/07/01 11:25:37;;;;;;;36.58;16.58;;;15.40;99.90;;;;;;5007745;28;20027;-90
2021/07/01 11:28:26;;;;;;;31.08;15.63;;;15.40;99.90;;;;;;5005062;28;20027;-91
2021/07/01 11:30:55;;;;;;;34.83;16.25;;;15.40;99.90;;;;;;5016235;28;20016;-90
2021/07/01 11:33:22;;;;;;;39.25;17.30;;;15.50;99.90;;;;;;4962161;28;20045;-89
2021/07/01 11:35:49;;;;;;;38.22;16.73;;;15.50;99.90;;;;;;5002325;28;20027;-89
2021/07/01 11:38:29;;;;;;;39.65;17.45;;;15.50;99.90;;;;;;5018967;28;20035;-90
2021/07/01 11:40:56;;;;;;;40.63;16.25;;;15.50;99.90;;;;;;5015628;28;20115;-90
2021/07/01 11:43:22;;;;;;;34.72;17.10;;;15.50;99.90;;;;;;5012389;28;20027;-90
2021/07/01 11:45:50;;;;;;;43.75;18.23;;;15.50;99.90;;;;;;5012663;28;20051;-91
2021/07/01 11:48:21;;;;;;;38.53;17.17;;;15.50;99.90;;;;;;4998952;28;20031;-90
2021/07/01 11:50:48;;;;;;;;;;;15.50;99.90;;;;;;5017161;28;20496;-89
2021/07/01 11:53:16;;;;;;;40.70;17.80;;;15.60;99.90;;;;;;5012576;28;19906;-90
2021/07/01 11:55:46;;;;;;;36.53;18.55;;;15.60;99.90;;;;;;5016586;28;20031;-89
2021/07/01 11:58:12;;;;;;;33.80;17.27;;;15.60;99.90;;;;;;5015988;28;20412;-90
2021/07/01 12:00:38;;;;;;;44.45;18.92;;;15.60;99.90;;;;;;5005419;28;20023;-91
2021/07/01 12:03:05;;;;;;;42.67;18.27;;;15.60;99.90;;;;;;5005464;28;20057;-90
2021/07/01 12:05:32;;;;;;;35.03;16.02;;;15.60;99.90;;;;;;4998037;28;20027;-90
2021/07/01 12:07:59;;;;;;;41.00;16.77;;;15.70;99.90;;;;;;5018965;28;20016;-90
2021/07/01 12:10:25;;;;;;;37.38;16.80;;;15.70;99.90;;;;;;4937715;28;20027;-90
2021/07/01 12:12:51;;;;;;;40.72;17.45;;;15.70;99.90;;;;;;5021858;28;20031;-89
2021/07/01 12:15:17;;;;;;;37.75;16.77;;;15.70;99.90;;;;;;4981098;28;1198942;-90
2021/07/01 12:17:54;;;;;;;37.25;15.93;;;15.80;99.90;;;;;;5022469;28;20031;-90
2021/07/01 12:20:39;;;;;;;34.28;15.88;;;15.80;99.90;;;;;;5008243;28;20043;-90
2021/07/01 12:23:11;;;;;;;31.17;14.25;;;15.90;99.90;;;;;;5019745;28;20041;-90
2021/07/01 12:25:39;;;;;;;35.55;16.50;;;15.90;99.90;;;;;;5023817;28;20085;-89
2021/07/01 12:28:08;;;;;;;35.00;14.75;;;15.90;99.90;;;;;;5035550;28;20032;-89
2021/07/01 12:30:56;;;;;;;27.85;13.35;;;15.90;99.90;;;;;;5022528;28;20095;-88
2021/07/01 12:33:48;;;;;;;33.47;14.50;;;16.00;99.90;;;;;;5037176;28;20081;-90
2021/07/01 12:36:33;;;;;;;24.65;12.88;;;16.00;99.90;;;;;;5019756;28;20032;-90
2021/07/01 12:39:05;;;;;;;23.83;13.15;;;16.10;99.90;;;;;;5007966;28;20032;-91
2021/07/01 12:41:39;;;;;;;29.65;12.85;;;16.10;99.90;;;;;;5017139;28;20031;-90
2021/07/01 12:44:09;;;;;;;28.15;12.27;;;16.10;99.90;;;;;;5015503;28;20062;-90
2021/07/01 12:46:46;;;;;;;27.60;12.60;;;16.10;99.90;;;;;;5016997;28;20039;-91
2021/07/01 12:49:18;;;;;;;39.17;15.27;;;16.10;99.90;;;;;;5010640;28;20085;-91
2021/07/01 12:51:45;;;;;;;31.63;14.38;;;16.10;99.90;;;;;;5033772;28;20027;-91
2021/07/01 12:54:15;;;;;;;36.08;15.63;;;16.10;99.90;;;;;;5019741;28;20012;-91
2021/07/01 12:56:41;;;;;;;37.55;15.70;;;16.10;99.90;;;;;;5016159;28;20027;-91
2021/07/01 12:59:07;;;;;;;39.15;15.88;;;16.10;99.90;;;;;;5005092;28;20028;-90
2021/07/01 13:01:33;;;;;;;34.22;15.70;;;16.20;99.90;;;;;;5035842;28;20025;-91
2021/07/01 13:03:59;;;;;;;44.08;17.90;;;16.20;99.90;;;;;;5020044;28;20477;-91
2021/07/01 13:06:25;;;;;;;43.50;17.67;;;16.20;99.90;;;;;;4937868;28;20362;-91
2021/07/01 13:08:51;;;;;;;41.83;17.45;;;16.20;99.90;;;;;;5014204;28;20024;-91
2021/07/01 13:11:17;;;;;;;39.78;16.90;;;16.30;99.90;;;;;;5002851;28;20024;-91
2021/07/01 13:13:43;;;;;;;33.28;16.85;;;16.30;99.90;;;;;;5035002;28;20050;-92
2021/07/01 13:16:09;;;;;;;33.28;15.95;;;16.30;99.90;;;;;;5019507;28;20025;-91